Serenea — SVAC6 — position and weather

sailwx.info

Track history (hours):
 
Tides and Currents Weather Stations Pressure Air Temp Water Temp Dewpoint Dewpoint Depression Visibility Wind Speed Wind Dir Waves Ship Positions

Serenea

Last reported at 2018-Jun-24 12:25 UTC. Time now 2018-Jun-24 12:28 UTC.
Position N 39°00' W 075°14'.

Length 274 m; draft 15.2 m.

Type: Tanker. MMSI: 240797000.

Date/timePositionNaut miles runAvg speedWind from/ knotsBaromVisibWave heightAir tempDewpointWater temp
2018-Jun-24 12:25N 39°00' W 075°14'0 0.0
2018-Jun-24 12:00N 39°00' W 075°14'0 0.0
2018-Jun-24 11:30N 39°00' W 075°14'0 0.0
2018-Jun-24 10:54N 39°00' W 075°14'0 0.0
2018-Jun-24 10:30N 39°00' W 075°14'0 0.0
2018-Jun-24 10:00N 39°00' W 075°14'0 0.0
2018-Jun-24 09:30N 39°00' W 075°14'0 0.0
2018-Jun-24 09:00N 39°00' W 075°14'0 0.0
2018-Jun-24 08:30N 39°00' W 075°14'0 0.1
2018-Jun-24 08:00N 39°00' W 075°14'0 0.3
2018-Jun-24 07:30N 38°60' W 075°14'0 0.3
2018-Jun-24 07:00N 38°60' W 075°14'0 0.1
2018-Jun-24 06:30N 38°60' W 075°13'0 0.1
2018-Jun-24 06:00N 38°60' W 075°13'0 0.0
2018-Jun-24 05:30N 38°60' W 075°13'0 0.0
2018-Jun-24 05:00N 38°60' W 075°13'0 0.1
2018-Jun-24 04:30N 38°60' W 075°13'0 0.0
2018-Jun-24 04:00N 38°60' W 075°13'0 0.1
2018-Jun-24 03:30N 38°60' W 075°13'0 0.0
2018-Jun-24 03:00N 38°60' W 075°13'0 0.0
2018-Jun-24 02:30N 38°60' W 075°13'0 0.1
2018-Jun-24 02:00N 38°60' W 075°13'0 0.2
2018-Jun-24 01:30N 38°60' W 075°14'0 0.3
2018-Jun-24 01:00N 38°60' W 075°14'0 0.2
2018-Jun-24 00:30N 39°00' W 075°14'0 0.1
2018-Jun-24 00:00N 39°00' W 075°14'0 0.0
2018-Jun-23 23:30N 39°00' W 075°14'0 0.0
2018-Jun-23 22:54N 39°00' W 075°14'0 0.0
2018-Jun-23 22:27N 39°00' W 075°14'0 0.0
2018-Jun-23 22:00N 39°00' W 075°14'0 0.0
2018-Jun-23 21:30N 39°00' W 075°14'0 0.0
2018-Jun-23 21:00N 39°00' W 075°14'0 0.1
2018-Jun-23 20:30N 39°00' W 075°14'0 0.1
2018-Jun-23 20:00N 39°00' W 075°14'0 0.1
2018-Jun-23 19:24N 39°00' W 075°14'0 0.2
2018-Jun-23 19:00N 39°00' W 075°14'0 0.4
2018-Jun-23 18:30N 38°60' W 075°14'0 0.2
2018-Jun-23 18:00N 38°60' W 075°13'0 0.0
2018-Jun-23 17:12N 38°60' W 075°13'0 0.0
2018-Jun-23 17:00N 38°60' W 075°13'0 0.0
2018-Jun-23 16:30N 38°60' W 075°13'0 0.0
2018-Jun-23 15:57N 38°60' W 075°13'0 0.1
2018-Jun-23 15:30N 38°60' W 075°13'0 0.0
2018-Jun-23 14:57N 38°60' W 075°13'0 0.0
2018-Jun-23 14:30N 38°60' W 075°13'0 0.1
2018-Jun-23 14:00N 38°60' W 075°13'0 0.0
2018-Jun-23 13:27N 38°60' W 075°13'0 0.1
2018-Jun-23 13:00N 38°60' W 075°14'0 0.2
2018-Jun-23 12:30N 38°60' W 075°14'0 0.3
2018-Jun-23 12:00N 38°60' W 075°14'0 0.2
2018-Jun-23 11:30N 39°00' W 075°14'0 0.1
2018-Jun-23 11:00N 39°00' W 075°14'0 0.1
2018-Jun-23 10:30N 39°00' W 075°14'0 0.5
2018-Jun-23 10:01N 38°60' W 075°14'1 2.3
2018-Jun-23 09:31N 38°59' W 075°13'3 5.6
2018-Jun-23 09:00N 38°57' W 075°10'4 8.1
2018-Jun-23 08:30N 38°53' W 075°08'4 7.8
2018-Jun-23 07:59N 38°51' W 075°04'4 8.6
2018-Jun-23 07:28N 38°47' W 075°01'6 7.9
2018-Jun-23 06:42N 38°43' W 074°55'19810.6
2018-Jun-22 12:01N 37°06' W 071°16'011.4
2018-Jun-22 11:59N 37°06' W 071°16'611.5
2018-Jun-22 11:30N 37°05' W 071°09'611.9
2018-Jun-22 11:00N 37°03' W 071°02'  
Track history (hours):
 
Tides and Currents Weather Stations Pressure Air Temp Water Temp Dewpoint Dewpoint Depression Visibility Wind Speed Wind Dir Waves Ship Positions

Serenea

Last reported at 2018-Jun-24 12:25 UTC. Time now 2018-Jun-24 12:28 UTC.
Position N 39°00' W 075°14'.

Length 274 m; draft 15.2 m.

Type: Tanker. MMSI: 240797000.

Date/timePositionNaut miles runAvg speedWind from/ knotsBaromVisibWave heightAir tempDewpointWater temp
2018-Jun-24 12:25N 39°00' W 075°14'0 0.0
2018-Jun-24 12:00N 39°00' W 075°14'0 0.0
2018-Jun-24 11:30N 39°00' W 075°14'0 0.0
2018-Jun-24 10:54N 39°00' W 075°14'0 0.0
2018-Jun-24 10:30N 39°00' W 075°14'0 0.0
2018-Jun-24 10:00N 39°00' W 075°14'0 0.0
2018-Jun-24 09:30N 39°00' W 075°14'0 0.0
2018-Jun-24 09:00N 39°00' W 075°14'0 0.0
2018-Jun-24 08:30N 39°00' W 075°14'0 0.1
2018-Jun-24 08:00N 39°00' W 075°14'0 0.3
2018-Jun-24 07:30N 38°60' W 075°14'0 0.3
2018-Jun-24 07:00N 38°60' W 075°14'0 0.1
2018-Jun-24 06:30N 38°60' W 075°13'0 0.1
2018-Jun-24 06:00N 38°60' W 075°13'0 0.0
2018-Jun-24 05:30N 38°60' W 075°13'0 0.0
2018-Jun-24 05:00N 38°60' W 075°13'0 0.1
2018-Jun-24 04:30N 38°60' W 075°13'0 0.0
2018-Jun-24 04:00N 38°60' W 075°13'0 0.1
2018-Jun-24 03:30N 38°60' W 075°13'0 0.0
2018-Jun-24 03:00N 38°60' W 075°13'0 0.0
2018-Jun-24 02:30N 38°60' W 075°13'0 0.1
2018-Jun-24 02:00N 38°60' W 075°13'0 0.2
2018-Jun-24 01:30N 38°60' W 075°14'0 0.3
2018-Jun-24 01:00N 38°60' W 075°14'0 0.2
2018-Jun-24 00:30N 39°00' W 075°14'0 0.1
2018-Jun-24 00:00N 39°00' W 075°14'0 0.0
2018-Jun-23 23:30N 39°00' W 075°14'0 0.0
2018-Jun-23 22:54N 39°00' W 075°14'0 0.0
2018-Jun-23 22:27N 39°00' W 075°14'0 0.0
2018-Jun-23 22:00N 39°00' W 075°14'0 0.0
2018-Jun-23 21:30N 39°00' W 075°14'0 0.0
2018-Jun-23 21:00N 39°00' W 075°14'0 0.1
2018-Jun-23 20:30N 39°00' W 075°14'0 0.1
2018-Jun-23 20:00N 39°00' W 075°14'0 0.1
2018-Jun-23 19:24N 39°00' W 075°14'0 0.2
2018-Jun-23 19:00N 39°00' W 075°14'0 0.4
2018-Jun-23 18:30N 38°60' W 075°14'0 0.2
2018-Jun-23 18:00N 38°60' W 075°13'0 0.0
2018-Jun-23 17:12N 38°60' W 075°13'0 0.0
2018-Jun-23 17:00N 38°60' W 075°13'0 0.0
2018-Jun-23 16:30N 38°60' W 075°13'0 0.0
2018-Jun-23 15:57N 38°60' W 075°13'0 0.1
2018-Jun-23 15:30N 38°60' W 075°13'0 0.0
2018-Jun-23 14:57N 38°60' W 075°13'0 0.0
2018-Jun-23 14:30N 38°60' W 075°13'0 0.1
2018-Jun-23 14:00N 38°60' W 075°13'0 0.0
2018-Jun-23 13:27N 38°60' W 075°13'0 0.1
2018-Jun-23 13:00N 38°60' W 075°14'0 0.2
2018-Jun-23 12:30N 38°60' W 075°14'0 0.3
2018-Jun-23 12:00N 38°60' W 075°14'0 0.2
2018-Jun-23 11:30N 39°00' W 075°14'0 0.1
2018-Jun-23 11:00N 39°00' W 075°14'0 0.1
2018-Jun-23 10:30N 39°00' W 075°14'0 0.5
2018-Jun-23 10:01N 38°60' W 075°14'1 2.3
2018-Jun-23 09:31N 38°59' W 075°13'3 5.6
2018-Jun-23 09:00N 38°57' W 075°10'4 8.1
2018-Jun-23 08:30N 38°53' W 075°08'4 7.8
2018-Jun-23 07:59N 38°51' W 075°04'4 8.6
2018-Jun-23 07:28N 38°47' W 075°01'6 7.9
2018-Jun-23 06:42N 38°43' W 074°55'19810.6
2018-Jun-22 12:01N 37°06' W 071°16'011.4
2018-Jun-22 11:59N 37°06' W 071°16'611.5
2018-Jun-22 11:30N 37°05' W 071°09'611.9
2018-Jun-22 11:00N 37°03' W 071°02'  

Dump ship's entire track history